首页
METAR-TAF:

METAR-TAF

机场 :

科米索, 意大利

纬度: 36-59-30N, 经度: 14-36-25E, 海拔: 190米

当前天气观测

该预报发布于32分钟前的04:50 UTC
风速4节,风向东北
温度 5°C
湿度 100%
气压 1010 hPa
能见度10公里或以上

METAR: LICB 160450Z AUTO 04004KT 9999 NCD 05/05 Q1010

时间: 06:22 (05:22 UTC)

预报

该预报发布于3小时和22分钟前的02:00 UTC
预报有效从16日的 03点(UTC)到 16日的 12点(UTC)
风速5节,风向多变
能见度10公里或以上
散云层高于6000英尺

TAF: LICB 160200Z 1603/1612 VRB05KT 9999 SCT060

超过4000个机场的气象观测和天气预报(METAR&TAF报告)。

可查询的气象台以黄色和红色小点在地图上表示。

将鼠标移到小点上方,可查看气象台名称。

然后点击查看天气观测和预报。

如需切换地图:点击带黑十字的绿色按钮放大地图;点击带横线的绿色按钮缩小地图;或者点击绿色箭头查看邻近地区的地图。


METAR-TAF: